Time;durP1;ratioP1;P1;durP2;ratioP2;P2;SDS_P1;SDS_P2;PMS_P1;PMS_P2;Temp;Humidity;BMP_temperature;BMP_pressure;BME280_temperature;BME280_humidity;BME280_pressure;Samples;Min_cycle;Max_cycle;Signal;HPM_P1;HPM_P2
2020/12/01 00:00:08;;;;;;;29.17;11.63;;;1.00;62.20;;;;;;5029057;28;20288;-82
2020/12/01 00:02:34;;;;;;;22.13;10.60;;;0.90;62.20;;;;;;5017289;28;20038;-82
2020/12/01 00:05:00;;;;;;;20.20;9.17;;;0.80;62.30;;;;;;5030913;28;20347;-82
2020/12/01 00:07:26;;;;;;;18.27;7.90;;;0.80;62.50;;;;;;5024328;28;20426;-81
2020/12/01 00:09:51;;;;;;;12.07;6.60;;;0.90;62.70;;;;;;5027037;28;20041;-82
2020/12/01 00:12:17;;;;;;;12.77;6.10;;;0.90;62.60;;;;;;5024878;28;20033;-82
2020/12/01 00:14:43;;;;;;;11.97;5.93;;;0.90;62.70;;;;;;5029270;28;20037;-82
2020/12/01 00:17:08;;;;;;;15.77;7.43;;;0.90;62.50;;;;;;5029100;28;20042;-81
2020/12/01 00:19:34;;;;;;;11.00;6.30;;;0.90;62.50;;;;;;5030527;28;20372;-81
2020/12/01 00:22:00;;;;;;;14.17;7.00;;;0.90;62.50;;;;;;5028011;28;20084;-81
2020/12/01 00:24:25;;;;;;;12.17;5.87;;;1.00;62.60;;;;;;5029714;28;20041;-81
2020/12/01 00:26:51;;;;;;;10.60;5.87;;;1.00;62.60;;;;;;5026232;28;20041;-81
2020/12/01 00:29:17;;;;;;;16.23;7.67;;;1.00;62.30;;;;;;5026295;28;20022;-81
2020/12/01 00:31:43;;;;;;;13.13;6.20;;;1.00;62.40;;;;;;5026396;28;20049;-82
2020/12/01 00:34:12;;;;;;;11.70;5.90;;;1.00;62.40;;;;;;5024263;28;20046;-82
2020/12/01 00:36:40;;;;;;;11.47;6.03;;;1.00;62.50;;;;;;5024201;28;20284;-82
2020/12/01 00:39:07;;;;;;;13.73;6.60;;;1.10;62.50;;;;;;5026799;28;20281;-82
2020/12/01 00:41:32;;;;;;;14.93;6.97;;;1.00;62.20;;;;;;5026190;28;20284;-82
2020/12/01 00:43:58;;;;;;;13.67;6.40;;;1.00;62.40;;;;;;5027033;28;20284;-81
2020/12/01 00:46:24;;;;;;;10.60;6.23;;;0.90;62.30;;;;;;5027506;28;20112;-82
2020/12/01 00:48:50;;;;;;;14.10;6.77;;;0.90;62.40;;;;;;5029020;28;20116;-81
2020/12/01 00:51:15;;;;;;;11.53;6.53;;;0.80;62.40;;;;;;5028045;28;20025;-82
2020/12/01 00:53:41;;;;;;;13.23;6.53;;;0.80;62.40;;;;;;5029904;28;20037;-81
2020/12/01 00:56:07;;;;;;;17.40;7.00;;;0.80;62.50;;;;;;5028734;28;20033;-81
2020/12/01 00:58:32;;;;;;;12.27;7.00;;;0.80;62.60;;;;;;5019840;28;20053;-81
2020/12/01 01:00:58;;;;;;;17.83;7.77;;;0.80;62.70;;;;;;5022544;28;20037;-81
2020/12/01 01:03:24;;;;;;;11.00;4.77;;;0.80;62.70;;;;;;5021274;28;20143;-81
2020/12/01 01:05:49;;;;;;;11.63;5.57;;;0.80;62.80;;;;;;5029488;28;20056;-81
2020/12/01 01:08:15;;;;;;;13.47;6.67;;;0.80;62.80;;;;;;5026649;28;20036;-81
2020/12/01 01:10:41;;;;;;;9.80;5.90;;;0.80;62.80;;;;;;5027860;28;20021;-81
2020/12/01 01:13:07;;;;;;;17.93;10.10;;;0.70;62.80;;;;;;5023823;28;20061;-81
2020/12/01 01:15:35;;;;;;;16.50;6.10;;;0.70;63.00;;;;;;5024094;28;20033;-82
2020/12/01 01:18:02;;;;;;;12.20;6.80;;;0.70;63.10;;;;;;5026549;28;20037;-82
2020/12/01 01:20:28;;;;;;;15.03;5.80;;;0.70;63.00;;;;;;5023719;28;20284;-81
2020/12/01 01:22:55;;;;;;;11.50;5.60;;;0.70;63.30;;;;;;5024455;28;20292;-82
2020/12/01 01:25:21;;;;;;;10.13;5.20;;;0.80;63.30;;;;;;5023754;28;20367;-82
2020/12/01 01:27:47;;;;;;;16.93;7.60;;;0.80;62.90;;;;;;5023188;28;20280;-81
2020/12/01 01:30:19;;;;;;;10.93;5.30;;;0.80;62.90;;;;;;5024720;28;20292;-82
2020/12/01 01:32:45;;;;;;;15.20;6.85;;;0.70;63.00;;;;;;5018253;28;20039;-81
2020/12/01 01:35:11;;;;;;;12.07;5.60;;;0.70;62.80;;;;;;5024492;28;20485;-82
2020/12/01 01:37:37;;;;;;;10.10;5.87;;;0.60;63.00;;;;;;5025273;28;20037;-82
2020/12/01 01:40:04;;;;;;;13.33;6.47;;;0.60;62.90;;;;;;5024248;28;20021;-82
2020/12/01 01:42:29;;;;;;;21.60;6.40;;;0.60;63.00;;;;;;5023259;28;20067;-81
2020/12/01 01:44:55;;;;;;;11.27;5.53;;;0.50;63.10;;;;;;5022920;28;20337;-82
2020/12/01 01:47:21;;;;;;;9.70;5.63;;;0.40;63.20;;;;;;5026473;28;20032;-82
2020/12/01 01:50:09;;;;;;;10.87;5.80;;;0.40;63.40;;;;;;5027310;28;20026;-82
2020/12/01 01:52:37;;;;;;;9.27;4.83;;;0.40;63.50;;;;;;5019610;28;20091;-81
2020/12/01 01:55:25;;;;;;;15.20;7.83;;;0.40;63.60;;;;;;5027113;28;20418;-81
2020/12/01 01:57:56;;;;;;;11.17;5.50;;;0.40;63.50;;;;;;5026406;28;20276;-82
2020/12/01 02:00:58;;;;;;;10.37;5.33;;;0.40;63.50;;;;;;5030617;28;20354;-82
2020/12/01 02:03:39;;;;;;;12.13;6.27;;;0.30;64.20;;;;;;5040879;28;20280;-81
2020/12/01 02:06:25;;;;;;;13.60;7.90;;;0.40;63.50;;;;;;5030212;28;20793;-81
2020/12/01 02:09:10;;;;;;;13.57;7.43;;;0.30;63.60;;;;;;5030009;28;20264;-82
2020/12/01 02:11:37;;;;;;;13.90;6.97;;;0.30;63.80;;;;;;5025292;28;20284;-82
2020/12/01 02:14:07;;;;;;;11.97;6.10;;;0.40;63.70;;;;;;5029311;28;20276;-82
2020/12/01 02:16:36;;;;;;;9.50;5.80;;;0.40;63.50;;;;;;5024579;28;20624;-82
2020/12/01 02:19:04;;;;;;;13.27;5.70;;;0.40;63.30;;;;;;5031033;28;20338;-82
2020/12/01 02:21:37;;;;;;;9.27;5.30;;;0.40;63.30;;;;;;5031476;28;20363;-81
2020/12/01 02:24:07;;;;;;;13.53;5.40;;;0.30;63.40;;;;;;5029148;28;20294;-82
2020/12/01 02:26:33;;;;;;;10.40;4.57;;;0.30;63.50;;;;;;5027792;28;20285;-82
2020/12/01 02:29:12;;;;;;;14.43;5.60;;;0.40;63.40;;;;;;5029521;28;20300;-82
2020/12/01 02:31:38;;;;;;;12.83;6.57;;;0.30;63.40;;;;;;5024351;28;20674;-81
2020/12/01 02:34:05;;;;;;;12.07;5.03;;;0.20;63.60;;;;;;5020918;28;20359;-81
2020/12/01 02:36:32;;;;;;;11.83;5.90;;;0.30;63.60;;;;;;5029099;28;20782;-82
2020/12/01 02:38:58;;;;;;;11.67;5.67;;;0.30;63.80;;;;;;5023827;28;20280;-81
2020/12/01 02:41:24;;;;;;;17.67;7.03;;;0.30;63.50;;;;;;5029532;28;20276;-81
2020/12/01 02:43:49;;;;;;;13.57;6.83;;;0.30;63.60;;;;;;5028970;28;20022;-81
2020/12/01 02:46:15;;;;;;;13.30;8.40;;;0.30;63.50;;;;;;5026899;28;20581;-81
2020/12/01 02:48:41;;;;;;;11.13;6.23;;;0.30;63.40;;;;;;5025150;28;20029;-81
2020/12/01 02:51:07;;;;;;;13.17;5.23;;;0.30;63.40;;;;;;5025632;28;20391;-81
2020/12/01 02:53:32;;;;;;;11.73;5.43;;;0.30;63.40;;;;;;5026285;28;20041;-81
2020/12/01 02:55:58;;;;;;;11.13;4.50;;;0.30;63.40;;;;;;5033148;28;20048;-82
2020/12/01 02:58:24;;;;;;;11.50;4.57;;;0.20;63.30;;;;;;5026959;28;20021;-81
2020/12/01 03:00:49;;;;;;;8.43;4.17;;;0.20;63.40;;;;;;5028113;28;20033;-81
2020/12/01 03:03:15;;;;;;;20.87;6.20;;;0.20;63.40;;;;;;5030258;28;20057;-82
2020/12/01 03:05:41;;;;;;;16.83;6.60;;;0.20;63.40;;;;;;5037343;28;20113;-81
2020/12/01 03:08:06;;;;;;;14.93;5.90;;;0.20;63.60;;;;;;5027684;28;20030;-82
2020/12/01 03:10:32;;;;;;;10.10;5.37;;;0.20;63.80;;;;;;5024987;28;20504;-81
2020/12/01 03:12:58;;;;;;;9.63;4.83;;;0.20;63.80;;;;;;5028488;28;20176;-82
2020/12/01 03:15:24;;;;;;;12.67;5.43;;;0.20;63.50;;;;;;5030124;28;20479;-81
2020/12/01 03:17:49;;;;;;;11.10;5.93;;;0.20;63.70;;;;;;5026950;28;20029;-81
2020/12/01 03:20:15;;;;;;;12.70;5.23;;;0.10;63.60;;;;;;5026068;28;20282;-82
2020/12/01 03:22:41;;;;;;;11.60;4.97;;;0.10;63.70;;;;;;5029523;28;20041;-81
2020/12/01 03:25:07;;;;;;;13.00;4.90;;;0.10;63.70;;;;;;5025655;28;20025;-82
2020/12/01 03:27:32;;;;;;;7.93;4.20;;;0.00;63.70;;;;;;5030475;28;20021;-81
2020/12/01 03:29:58;;;;;;;11.97;4.30;;;0.00;63.60;;;;;;5024953;28;20041;-81
2020/12/01 03:32:24;;;;;;;7.03;3.57;;;0.00;63.80;;;;;;5022952;28;20468;-82
2020/12/01 03:34:52;;;;;;;9.83;3.50;;;-0.10;63.70;;;;;;5029027;28;20045;-82
2020/12/01 03:37:18;;;;;;;8.77;3.70;;;0.00;64.00;;;;;;5030301;28;24088;-81
2020/12/01 03:39:44;;;;;;;5.50;3.50;;;0.10;64.00;;;;;;5028394;28;20779;-82
2020/12/01 03:42:10;;;;;;;7.90;3.77;;;0.10;63.90;;;;;;5025967;28;20346;-81
2020/12/01 03:44:35;;;;;;;11.23;4.20;;;0.20;63.80;;;;;;5030293;28;20030;-82
2020/12/01 03:47:01;;;;;;;8.90;3.97;;;0.20;63.60;;;;;;5030967;28;20384;-81
2020/12/01 03:49:27;;;;;;;7.60;4.67;;;0.20;63.60;;;;;;5023824;28;20029;-81
2020/12/01 03:51:52;;;;;;;10.73;5.30;;;0.10;63.60;;;;;;5023960;28;20060;-82
2020/12/01 03:54:18;;;;;;;8.63;5.13;;;0.10;63.70;;;;;;5030435;28;20083;-81
2020/12/01 03:56:44;;;;;;;8.27;5.20;;;0.10;63.70;;;;;;5032819;28;20029;-81
2020/12/01 03:59:09;;;;;;;9.37;5.33;;;0.20;63.60;;;;;;5026679;28;20060;-82
2020/12/01 04:01:35;;;;;;;17.57;5.37;;;0.10;64.00;;;;;;5023627;28;20018;-81
2020/12/01 04:04:01;;;;;;;10.07;5.07;;;0.10;63.50;;;;;;5038189;28;20083;-81
2020/12/01 04:06:27;;;;;;;9.33;5.57;;;0.00;63.60;;;;;;5026718;28;20033;-81
2020/12/01 04:08:52;;;;;;;10.97;5.43;;;0.00;63.90;;;;;;5026825;28;20025;-82
2020/12/01 04:11:18;;;;;;;9.83;4.77;;;0.00;63.90;;;;;;5025724;28;20028;-82
2020/12/01 04:13:44;;;;;;;18.23;9.03;;;0.10;63.80;;;;;;5024797;28;20382;-82
2020/12/01 04:16:10;;;;;;;17.83;9.60;;;0.00;63.90;;;;;;5018442;28;20037;-81
2020/12/01 04:18:35;;;;;;;16.47;8.73;;;0.10;64.40;;;;;;5029430;28;20025;-81
2020/12/01 04:21:01;;;;;;;15.77;8.57;;;0.20;64.40;;;;;;5027879;28;20040;-81
2020/12/01 04:23:27;;;;;;;20.40;10.30;;;0.30;64.40;;;;;;5025896;28;20111;-81
2020/12/01 04:25:53;;;;;;;26.47;13.77;;;0.30;64.30;;;;;;5029054;28;20021;-81
2020/12/01 04:28:18;;;;;;;42.97;24.07;;;0.40;64.30;;;;;;5027100;28;20037;-81
2020/12/01 04:30:44;;;;;;;29.50;16.07;;;0.40;64.40;;;;;;5030382;28;20105;-81
2020/12/01 04:33:10;;;;;;;29.27;16.63;;;0.40;64.40;;;;;;5031293;28;20391;-81
2020/12/01 04:35:36;;;;;;;23.20;13.40;;;0.50;64.50;;;;;;5028339;28;20037;-81
2020/12/01 04:38:06;;;;;;;25.37;13.67;;;0.40;64.50;;;;;;5032526;28;20018;-81
2020/12/01 04:40:35;;;;;;;30.60;15.37;;;0.50;64.60;;;;;;5023081;28;20276;-81
2020/12/01 04:43:10;;;;;;;35.30;18.07;;;0.50;64.60;;;;;;5030438;28;20296;-81
2020/12/01 04:45:36;;;;;;;36.77;18.87;;;0.50;64.60;;;;;;5032598;28;20390;-81
2020/12/01 04:48:13;;;;;;;30.00;16.40;;;0.50;64.60;;;;;;5031837;28;20318;-81
2020/12/01 04:50:45;;;;;;;56.47;25.43;;;0.50;64.70;;;;;;5020893;28;20049;-81
2020/12/01 04:53:39;;;;;;;48.40;22.93;;;0.50;64.70;;;;;;5017133;28;20277;-81
2020/12/01 04:56:24;;;;;;;50.47;22.23;;;0.60;64.90;;;;;;5048626;28;20283;-81
2020/12/01 04:59:26;;;;;;;60.90;26.73;;;0.60;64.80;;;;;;5028780;28;20292;-81
2020/12/01 05:02:29;;;;;;;48.23;21.33;;;0.60;64.90;;;;;;5023321;28;20834;-81
2020/12/01 05:05:51;;;;;;;38.95;17.90;;;0.70;64.90;;;;;;5019793;28;20285;-81
2020/12/01 05:08:32;;;;;;;30.47;13.67;;;0.70;64.80;;;;;;5025815;28;20181;-81
2020/12/01 05:11:40;;;;;;;31.70;15.90;;;0.60;64.70;;;;;;5025305;28;20294;-81
2020/12/01 05:14:19;;;;;;;30.23;16.47;;;0.60;65.00;;;;;;5019708;28;20288;-81
2020/12/01 05:17:12;;;;;;;30.70;17.00;;;0.60;64.90;;;;;;5022659;28;20367;-81
2020/12/01 05:19:44;;;;;;;28.90;16.45;;;0.60;65.10;;;;;;5028448;28;20275;-82
2020/12/01 05:22:12;;;;;;;24.63;13.83;;;0.60;65.00;;;;;;5023860;28;20400;-81
2020/12/01 05:24:50;;;;;;;28.87;15.40;;;0.60;65.00;;;;;;5020285;28;20319;-81
2020/12/01 05:27:24;;;;;;;29.23;15.80;;;0.60;65.10;;;;;;5021664;28;20406;-82
2020/12/01 05:30:17;;;;;;;31.80;16.07;;;0.60;65.10;;;;;;5023769;28;20360;-80
2020/12/01 05:33:04;;;;;;;;;;;0.60;65.20;;;;;;5019232;28;20999;-81
2020/12/01 05:35:33;;;;;;;32.90;17.00;;;0.60;65.10;;;;;;5023639;28;19916;-81
2020/12/01 05:38:14;;;;;;;30.03;15.87;;;0.60;65.10;;;;;;5018268;28;20338;-81
2020/12/01 05:40:57;;;;;;;36.17;15.77;;;0.70;65.00;;;;;;5023672;28;20284;-81
2020/12/01 05:43:31;;;;;;;30.43;15.17;;;0.70;65.00;;;;;;5024685;28;20296;-82
2020/12/01 05:46:13;;;;;;;28.53;15.83;;;0.70;65.00;;;;;;5021244;28;20644;-82
2020/12/01 05:49:01;;;;;;;28.17;15.73;;;0.70;64.90;;;;;;5018511;28;20292;-81
2020/12/01 05:51:48;;;;;;;30.37;15.90;;;0.70;65.00;;;;;;5017544;28;20367;-81
2020/12/01 05:54:37;;;;;;;28.60;15.37;;;0.70;65.10;;;;;;5024905;28;20285;-80
2020/12/01 05:57:14;;;;;;;30.27;17.13;;;0.70;65.00;;;;;;5018764;28;20292;-80
2020/12/01 06:00:10;;;;;;;28.00;15.97;;;0.70;64.90;;;;;;5025887;28;20276;-81
2020/12/01 06:03:08;;;;;;;26.27;16.03;;;0.70;65.10;;;;;;5024336;28;20628;-81
2020/12/01 06:05:37;;;;;;;34.90;16.37;;;0.70;65.20;;;;;;5022059;28;20298;-81
2020/12/01 06:08:10;;;;;;;29.40;15.30;;;0.70;65.10;;;;;;5018930;28;20272;-81
2020/12/01 06:10:48;;;;;;;32.13;15.13;;;0.70;65.10;;;;;;5035479;28;20920;-81
2020/12/01 06:13:41;;;;;;;28.97;16.07;;;0.70;65.10;;;;;;5023016;28;20316;-81
2020/12/01 06:16:07;;;;;;;;;;;0.70;65.10;;;;;;5025601;28;20302;-81
2020/12/01 06:18:49;;;;;;;31.10;16.10;;;0.70;64.90;;;;;;5021419;28;20004;-81
2020/12/01 06:21:16;;;;;;;34.67;18.60;;;0.70;65.00;;;;;;5024315;28;20030;-81
2020/12/01 06:24:07;;;;;;;32.63;18.10;;;0.70;64.90;;;;;;5025185;28;20862;-81
2020/12/01 06:27:10;;;;;;;29.93;16.80;;;0.60;65.00;;;;;;5024097;28;20284;-81
2020/12/01 06:29:46;;;;;;;32.17;15.70;;;0.60;65.50;;;;;;5018774;28;21116;-81
2020/12/01 06:32:34;;;;;;;22.70;11.90;;;0.60;65.50;;;;;;5020890;28;20025;-81
2020/12/01 06:35:37;;;;;;;21.93;11.70;;;0.70;65.40;;;;;;5026968;28;20295;-81
2020/12/01 06:38:27;;;;;;;16.33;8.75;;;0.70;65.30;;;;;;5024644;28;20327;-81
2020/12/01 06:41:01;;;;;;;14.70;8.40;;;0.80;65.10;;;;;;5023763;28;20124;-79
2020/12/01 06:43:36;;;;;;;15.53;8.10;;;0.80;64.90;;;;;;5021283;28;20351;-79
2020/12/01 06:46:35;;;;;;;12.63;7.47;;;0.90;64.80;;;;;;5036471;28;20281;-79
2020/12/01 06:49:02;;;;;;;13.60;6.73;;;0.90;64.70;;;;;;5028982;28;20775;-79
2020/12/01 06:51:28;;;;;;;19.70;9.03;;;0.90;64.50;;;;;;5030758;28;20354;-79
2020/12/01 06:54:08;;;;;;;28.47;14.40;;;0.90;64.70;;;;;;5021494;28;20377;-81
2020/12/01 06:56:34;;;;;;;40.10;18.37;;;0.90;64.60;;;;;;5027669;28;20107;-81
2020/12/01 06:59:09;;;;;;;29.37;15.30;;;0.90;64.70;;;;;;5028576;28;20323;-81
2020/12/01 07:01:37;;;;;;;31.07;15.53;;;0.90;64.80;;;;;;5026741;28;20121;-81
2020/12/01 07:04:02;;;;;;;24.97;14.13;;;0.80;64.80;;;;;;5030499;28;20372;-81
2020/12/01 07:06:28;;;;;;;29.70;16.30;;;0.90;64.80;;;;;;5026135;28;20363;-80
2020/12/01 07:09:08;;;;;;;29.60;17.40;;;1.00;64.90;;;;;;5023988;28;20030;-81
2020/12/01 07:11:48;;;;;;;33.17;18.10;;;1.00;65.00;;;;;;5026123;28;20026;-82
2020/12/01 07:14:39;;;;;;;36.67;20.37;;;1.00;64.80;;;;;;5027625;28;20636;-80
2020/12/01 07:17:20;;;;;;;29.53;17.93;;;1.00;65.10;;;;;;5020391;28;20636;-82
2020/12/01 07:20:00;;;;;;;30.27;16.43;;;1.00;65.10;;;;;;5027476;28;20280;-82
2020/12/01 07:22:35;;;;;;;29.83;17.33;;;1.00;65.00;;;;;;5028262;28;20323;-82
2020/12/01 07:25:10;;;;;;;36.97;17.97;;;1.00;65.00;;;;;;5025866;28;20334;-82
2020/12/01 07:27:51;;;;;;;30.63;17.20;;;1.00;65.20;;;;;;5023963;28;20646;-82
2020/12/01 07:30:25;;;;;;;28.03;16.20;;;1.10;65.20;;;;;;5025130;28;20285;-82
2020/12/01 07:32:57;;;;;;;28.10;16.33;;;1.10;65.20;;;;;;5025498;28;20322;-81
2020/12/01 07:35:37;;;;;;;42.20;20.93;;;1.10;65.40;;;;;;5024997;28;20782;-81
2020/12/01 07:38:21;;;;;;;33.23;18.23;;;1.20;65.70;;;;;;5026719;28;20728;-81
2020/12/01 07:40:51;;;;;;;29.07;16.80;;;1.30;65.60;;;;;;5023339;28;20288;-81
2020/12/01 07:43:19;;;;;;;25.67;14.60;;;1.30;65.50;;;;;;5024043;28;20299;-81
2020/12/01 07:45:45;;;;;;;28.67;15.57;;;1.40;65.40;;;;;;5009607;28;21071;-82
2020/12/01 07:48:17;;;;;;;29.07;15.50;;;1.40;65.10;;;;;;5028629;28;20297;-81
2020/12/01 07:50:44;;;;;;;24.17;14.50;;;1.40;65.00;;;;;;5023241;28;20279;-81
2020/12/01 07:53:15;;;;;;;33.17;15.00;;;1.30;65.10;;;;;;5022334;28;20051;-81
2020/12/01 07:55:55;;;;;;;25.47;14.13;;;1.40;65.20;;;;;;5023087;28;20030;-81
2020/12/01 07:58:24;;;;;;;32.53;16.77;;;1.40;65.00;;;;;;5024653;28;20813;-81
2020/12/01 08:01:12;;;;;;;30.17;16.33;;;1.40;64.90;;;;;;5018816;28;21088;-81
2020/12/01 08:03:38;;;;;;;27.93;14.63;;;1.30;64.90;;;;;;5027537;28;20314;-81
2020/12/01 08:06:11;;;;;;;27.80;16.33;;;1.30;65.10;;;;;;5025681;28;20028;-81
2020/12/01 08:08:40;;;;;;;29.13;16.13;;;1.30;65.40;;;;;;5019204;28;20042;-81
2020/12/01 08:11:10;;;;;;;30.83;15.37;;;1.40;65.40;;;;;;5007415;28;20285;-81
2020/12/01 08:13:37;;;;;;;31.73;15.43;;;1.40;65.30;;;;;;5026378;28;20112;-81
2020/12/01 08:16:15;;;;;;;27.03;15.93;;;1.40;65.30;;;;;;5002451;28;20043;-81
2020/12/01 08:18:42;;;;;;;29.23;15.37;;;1.50;65.40;;;;;;5028846;28;20284;-81
2020/12/01 08:21:08;;;;;;;29.30;15.33;;;1.50;65.50;;;;;;5030030;28;20365;-81
2020/12/01 08:23:36;;;;;;;28.20;15.30;;;1.50;65.50;;;;;;5032710;28;20292;-81
2020/12/01 08:26:18;;;;;;;32.40;17.30;;;1.50;65.50;;;;;;5031619;28;20366;-81
2020/12/01 08:28:48;;;;;;;25.88;16.00;;;1.40;65.50;;;;;;5027399;28;20264;-83
2020/12/01 08:31:25;;;;;;;31.77;17.73;;;1.50;65.70;;;;;;5019396;28;20030;-83
2020/12/01 08:34:22;;;;;;;28.83;16.43;;;1.50;65.70;;;;;;5021696;28;20034;-83
2020/12/01 08:37:09;;;;;;;26.10;15.60;;;1.50;65.80;;;;;;5022744;28;20049;-83
2020/12/01 08:39:55;;;;;;;28.27;16.70;;;1.50;65.90;;;;;;5022217;28;20280;-82
2020/12/01 08:42:38;;;;;;;29.37;16.23;;;1.50;66.70;;;;;;5025672;28;20297;-83
2020/12/01 08:45:13;;;;;;;31.17;16.63;;;1.60;66.10;;;;;;5019829;28;20281;-82
2020/12/01 08:47:41;;;;;;;26.33;15.43;;;1.60;66.00;;;;;;5022865;28;20775;-83
2020/12/01 08:50:42;;;;;;;25.53;15.27;;;1.60;66.00;;;;;;5028664;28;20412;-83
2020/12/01 08:53:14;;;;;;;26.57;14.57;;;1.70;66.20;;;;;;5027217;28;20087;-83
2020/12/01 08:55:42;;;;;;;32.27;15.57;;;1.80;66.10;;;;;;5027478;28;20029;-83
2020/12/01 08:58:27;;;;;;;27.10;15.77;;;1.80;66.00;;;;;;5023216;28;20092;-83
2020/12/01 09:01:09;;;;;;;27.77;15.53;;;1.80;65.90;;;;;;5024006;28;20025;-83
2020/12/01 09:03:37;;;;;;;26.60;15.07;;;1.80;66.00;;;;;;5031302;28;20392;-83
2020/12/01 09:06:06;;;;;;;25.77;15.87;;;1.80;65.90;;;;;;5017553;28;20022;-83
2020/12/01 09:22:14;;;;;;;24.07;14.30;;;1.80;66.10;;;;;;5026028;28;20210;-83
2020/12/01 09:24:41;;;;;;;21.23;13.10;;;1.80;66.00;;;;;;5029587;28;20032;-83
2020/12/01 09:27:15;;;;;;;20.17;12.50;;;1.80;65.80;;;;;;5029357;28;20480;-83
2020/12/01 09:29:50;;;;;;;25.93;13.67;;;1.80;65.80;;;;;;5030541;28;20109;-83
2020/12/01 09:32:21;;;;;;;29.50;14.17;;;1.80;65.90;;;;;;5025931;28;20033;-83
2020/12/01 09:34:47;;;;;;;24.23;14.43;;;1.90;66.00;;;;;;5019498;28;20029;-82
2020/12/01 09:37:13;;;;;;;29.43;15.77;;;1.90;65.90;;;;;;5016343;28;20034;-82
2020/12/01 09:39:39;;;;;;;25.83;15.03;;;1.90;65.90;;;;;;5014140;28;20272;-82
2020/12/01 09:47:43;;;;;;;27.00;14.40;;;1.90;65.90;;;;;;5027695;28;20030;-82
2020/12/01 09:50:06;;;;;;;27.37;13.73;;;1.80;66.10;;;;;;5026254;28;20115;-82
2020/12/01 09:52:57;;;;;;;25.20;14.13;;;1.90;66.10;;;;;;5031565;28;20029;-82
2020/12/01 10:00:52;;;;;;;25.40;13.60;;;1.90;66.30;;;;;;5031127;28;20029;-82
2020/12/01 10:08:32;;;;;;;28.27;14.50;;;2.20;66.20;;;;;;5013481;28;20109;-83
2020/12/01 10:36:43;;;;;;;27.93;15.70;;;2.50;65.80;;;;;;5034738;28;20104;-82
2020/12/01 10:39:09;;;;;;;25.57;14.03;;;2.50;65.60;;;;;;5023975;28;20034;-82
2020/12/01 10:41:39;;;;;;;33.60;15.70;;;2.50;65.60;;;;;;5025828;28;20053;-82
2020/12/01 10:44:05;;;;;;;24.00;15.30;;;2.40;65.70;;;;;;5034498;28;20037;-82
2020/12/01 10:46:31;;;;;;;36.60;17.83;;;2.50;65.80;;;;;;5033560;28;20607;-82
2020/12/01 10:48:57;;;;;;;28.80;16.67;;;2.50;65.80;;;;;;5027597;28;20037;-83
2020/12/01 10:51:22;;;;;;;32.60;19.20;;;2.60;65.80;;;;;;5015941;28;20469;-83
2020/12/01 10:53:48;;;;;;;34.90;19.67;;;2.60;65.60;;;;;;5027070;28;20029;-82
2020/12/01 10:56:14;;;;;;;26.13;16.57;;;2.70;65.70;;;;;;5027231;28;20034;-83
2020/12/01 10:58:40;;;;;;;26.57;12.33;;;2.70;65.80;;;;;;5025820;28;20168;-82
2020/12/01 11:01:06;;;;;;;29.27;13.37;;;2.80;65.60;;;;;;5029386;28;20238;-82
2020/12/01 11:03:31;;;;;;;23.10;12.80;;;2.80;65.30;;;;;;5026746;28;20037;-82
2020/12/01 11:05:57;;;;;;;27.60;13.57;;;2.90;65.20;;;;;;5024675;28;20017;-82
2020/12/01 11:08:23;;;;;;;30.10;16.67;;;3.00;65.20;;;;;;5029882;28;20066;-82
2020/12/01 11:10:48;;;;;;;35.67;17.27;;;3.00;65.00;;;;;;5031960;28;20498;-82
2020/12/01 11:13:14;;;;;;;29.23;16.53;;;3.00;64.90;;;;;;5031870;28;20036;-84
2020/12/01 11:15:40;;;;;;;30.90;15.63;;;3.10;64.90;;;;;;5023730;28;20034;-82
2020/12/01 11:18:06;;;;;;;40.30;17.33;;;3.10;64.80;;;;;;5018067;28;20502;-82
2020/12/01 11:20:33;;;;;;;29.43;15.03;;;3.20;64.70;;;;;;5031102;28;20029;-83
2020/12/01 11:22:59;;;;;;;34.60;15.13;;;3.30;64.70;;;;;;5024123;28;20025;-83
2020/12/01 11:25:25;;;;;;;27.40;15.23;;;3.20;64.40;;;;;;5032660;28;20083;-83
2020/12/01 11:27:51;;;;;;;30.20;15.47;;;3.20;64.40;;;;;;5023940;28;20462;-83
2020/12/01 11:30:19;;;;;;;27.23;13.50;;;3.20;64.30;;;;;;5030100;28;20044;-83
2020/12/01 11:32:45;;;;;;;26.73;13.83;;;3.30;64.20;;;;;;5020125;28;20469;-83
2020/12/01 11:35:13;;;;;;;21.17;11.13;;;3.30;64.20;;;;;;5014802;28;20110;-83
2020/12/01 11:37:40;;;;;;;22.80;10.80;;;3.40;63.90;;;;;;5028659;28;20435;-83
2020/12/01 11:40:07;;;;;;;23.47;11.70;;;3.40;63.60;;;;;;5026248;28;20033;-82
2020/12/01 11:42:33;;;;;;;21.30;12.53;;;3.40;63.40;;;;;;5012472;28;20048;-83
2020/12/01 11:44:59;;;;;;;24.67;13.33;;;3.50;63.10;;;;;;5013513;28;20026;-83
2020/12/01 11:47:25;;;;;;;18.00;10.90;;;3.50;63.10;;;;;;5028650;28;20013;-83
2020/12/01 11:49:51;;;;;;;24.57;11.13;;;3.50;62.90;;;;;;5017307;28;20014;-82
2020/12/01 11:52:17;;;;;;;21.50;11.20;;;3.50;62.50;;;;;;5025616;28;20030;-83
2020/12/01 11:54:43;;;;;;;24.57;11.43;;;3.60;62.30;;;;;;5025682;28;20487;-83
2020/12/01 11:57:08;;;;;;;21.83;11.27;;;3.60;62.20;;;;;;5034367;28;20037;-83
2020/12/01 11:59:34;;;;;;;17.17;10.57;;;3.60;61.80;;;;;;5029506;28;20615;-83
2020/12/01 12:02:01;;;;;;;19.83;10.73;;;3.70;61.60;;;;;;5033690;28;20049;-83
2020/12/01 12:04:27;;;;;;;24.97;11.63;;;3.60;61.30;;;;;;5033408;28;20034;-82
2020/12/01 12:06:52;;;;;;;33.63;13.13;;;3.60;61.30;;;;;;5032856;28;20052;-83
2020/12/01 12:09:19;;;;;;;29.70;13.97;;;3.70;61.40;;;;;;5033752;28;20071;-83
2020/12/01 12:11:44;;;;;;;29.83;13.30;;;3.70;61.40;;;;;;5030109;28;20400;-83
2020/12/01 12:14:11;;;;;;;31.97;14.03;;;3.80;61.60;;;;;;5025462;28;20026;-83
2020/12/01 12:16:37;;;;;;;28.77;13.87;;;3.90;61.60;;;;;;5013527;28;20075;-83
2020/12/01 12:19:03;;;;;;;26.30;14.27;;;3.90;61.60;;;;;;5027464;28;20029;-83
2020/12/01 12:21:29;;;;;;;27.47;13.73;;;3.90;61.60;;;;;;5026977;28;20585;-83
2020/12/01 12:23:54;;;;;;;28.70;14.57;;;4.00;61.80;;;;;;5013095;28;20033;-83
2020/12/01 12:26:21;;;;;;;37.60;14.60;;;4.00;61.80;;;;;;5013555;28;20168;-83
2020/12/01 12:28:47;;;;;;;33.27;14.63;;;4.00;61.80;;;;;;5022668;28;20079;-83
2020/12/01 12:31:15;;;;;;;43.80;15.90;;;4.00;61.80;;;;;;5027701;28;20017;-83
2020/12/01 12:33:41;;;;;;;33.73;13.90;;;4.00;61.80;;;;;;5021954;28;20033;-83
2020/12/01 12:36:08;;;;;;;40.33;14.97;;;4.10;61.90;;;;;;5013534;28;20026;-83
2020/12/01 12:38:35;;;;;;;39.73;15.43;;;4.10;61.80;;;;;;5021530;28;20037;-83
2020/12/01 12:41:00;;;;;;;30.13;15.23;;;4.10;61.90;;;;;;5030083;28;20030;-82
2020/12/01 12:43:27;;;;;;;34.43;15.43;;;4.10;61.80;;;;;;5029542;28;20021;-84
2020/12/01 12:45:54;;;;;;;32.30;14.93;;;4.20;61.80;;;;;;5032622;28;20028;-83
2020/12/01 12:48:21;;;;;;;35.23;15.90;;;4.10;61.70;;;;;;5031315;28;20018;-82
2020/12/01 12:50:47;;;;;;;30.77;15.50;;;4.20;61.80;;;;;;5024913;28;20032;-83
2020/12/01 12:53:12;;;;;;;32.90;15.17;;;4.20;61.80;;;;;;5018189;28;20030;-83
2020/12/01 12:55:38;;;;;;;29.50;16.23;;;4.20;61.80;;;;;;5016425;28;20048;-83
2020/12/01 12:58:04;;;;;;;41.40;17.07;;;4.20;61.70;;;;;;5030082;28;20040;-83
2020/12/01 13:00:33;;;;;;;33.03;17.13;;;4.20;61.60;;;;;;5018307;28;20025;-83
2020/12/01 13:03:00;;;;;;;40.20;16.03;;;4.20;61.60;;;;;;5013463;28;20038;-83
2020/12/01 13:05:26;;;;;;;28.40;15.20;;;4.20;61.70;;;;;;5013288;28;20025;-83
2020/12/01 13:07:52;;;;;;;33.03;16.70;;;4.30;62.40;;;;;;5014207;28;20083;-83
2020/12/01 13:10:18;;;;;;;30.97;16.23;;;4.30;61.80;;;;;;5027266;28;20104;-83
2020/12/01 13:12:44;;;;;;;34.97;15.70;;;4.30;61.70;;;;;;5022474;28;20033;-83
2020/12/01 13:15:10;;;;;;;27.17;15.47;;;4.30;61.70;;;;;;5014090;28;20132;-83
2020/12/01 13:17:36;;;;;;;32.50;16.60;;;4.40;61.70;;;;;;5021599;28;20022;-83
2020/12/01 13:20:04;;;;;;;30.60;16.77;;;4.40;61.60;;;;;;5009896;28;20038;-83
2020/12/01 13:22:29;;;;;;;35.67;16.07;;;4.40;61.70;;;;;;5027385;28;20028;-83
2020/12/01 13:24:55;;;;;;;30.43;15.60;;;4.40;61.70;;;;;;5019402;28;20023;-83
2020/12/01 13:27:21;;;;;;;28.73;14.67;;;4.40;61.60;;;;;;5025906;28;20033;-83
2020/12/01 13:29:47;;;;;;;29.73;14.50;;;4.50;61.50;;;;;;5027372;28;20446;-83
2020/12/01 13:32:12;;;;;;;32.47;14.30;;;4.40;61.40;;;;;;5029504;28;20493;-83
2020/12/01 13:34:38;;;;;;;25.63;13.93;;;4.50;61.40;;;;;;5032548;28;20048;-83
2020/12/01 13:37:04;;;;;;;27.60;14.23;;;4.50;61.30;;;;;;5024903;28;20477;-83
2020/12/01 13:39:30;;;;;;;38.00;15.77;;;4.50;61.10;;;;;;5032963;28;20021;-83
2020/12/01 13:41:56;;;;;;;32.30;15.17;;;4.50;61.20;;;;;;5026933;28;20041;-83
2020/12/01 13:44:22;;;;;;;31.83;14.70;;;4.50;61.10;;;;;;5020323;28;20037;-83
2020/12/01 13:46:53;;;;;;;24.17;13.47;;;4.60;61.10;;;;;;5020755;28;20025;-83
2020/12/01 13:49:19;;;;;;;21.10;12.40;;;4.60;60.80;;;;;;5031612;28;20053;-83
2020/12/01 13:51:45;;;;;;;31.43;14.13;;;4.60;60.70;;;;;;5032100;28;20022;-83
2020/12/01 13:54:11;;;;;;;29.67;13.53;;;4.60;60.60;;;;;;5023014;28;20076;-83